Time;durP1;ratioP1;P1;durP2;ratioP2;P2;SDS_P1;SDS_P2;PMS_P1;PMS_P2;Temp;Humidity;BMP_temperature;BMP_pressure;BME280_temperature;BME280_humidity;BME280_pressure;Samples;Min_cycle;Max_cycle;Signal;HPM_P1;HPM_P2
2023/07/23 00:00:29;;;;;;;8.80;7.23;;;14.10;1.00;;;;;;5033926;28;20408;-66
2023/07/23 00:02:55;;;;;;;7.60;6.90;;;14.10;1.00;;;;;;5033671;28;20410;-68
2023/07/23 00:05:24;;;;;;;9.97;7.70;;;14.10;1.00;;;;;;5032934;28;20493;-71
2023/07/23 00:07:54;;;;;;;8.50;7.50;;;14.10;1.00;;;;;;5031630;28;20223;-72
2023/07/23 00:10:21;;;;;;;7.47;6.73;;;14.00;1.00;;;;;;5033632;28;20415;-69
2023/07/23 00:12:46;;;;;;;8.10;6.77;;;14.10;1.00;;;;;;5033534;28;20467;-71
2023/07/23 00:15:12;;;;;;;8.60;7.77;;;14.00;1.00;;;;;;5032212;28;20481;-73
2023/07/23 00:17:39;;;;;;;7.93;7.13;;;14.10;1.00;;;;;;5032070;28;20207;-67
2023/07/23 00:20:07;;;;;;;11.73;8.97;;;14.10;1.00;;;;;;5033562;28;20407;-72
2023/07/23 00:22:33;;;;;;;13.17;7.83;;;14.10;1.00;;;;;;5032614;28;20518;-66
2023/07/23 00:24:59;;;;;;;8.80;7.90;;;14.10;1.00;;;;;;5032793;28;20534;-66
2023/07/23 00:27:25;;;;;;;17.50;8.80;;;14.10;1.00;;;;;;5031881;28;20795;-66
2023/07/23 00:29:50;;;;;;;12.23;7.80;;;14.10;1.00;;;;;;5033452;28;20183;-67
2023/07/23 00:32:16;;;;;;;20.30;9.67;;;14.10;1.00;;;;;;5032847;28;20163;-71
2023/07/23 00:34:42;;;;;;;11.20;8.53;;;14.00;1.00;;;;;;5033159;28;20172;-70
2023/07/23 00:37:08;;;;;;;10.00;7.97;;;14.10;1.00;;;;;;5031308;28;20261;-67
2023/07/23 00:39:34;;;;;;;12.83;8.10;;;14.00;1.00;;;;;;5033197;28;20203;-66
2023/07/23 00:42:00;;;;;;;8.27;7.40;;;14.00;1.00;;;;;;5032874;28;21007;-66
2023/07/23 00:44:26;;;;;;;11.00;8.63;;;14.00;1.00;;;;;;5032912;28;20170;-66
2023/07/23 00:46:53;;;;;;;11.93;8.73;;;14.00;1.00;;;;;;5031820;28;20648;-67
2023/07/23 00:49:19;;;;;;;9.60;8.60;;;14.00;1.00;;;;;;5032442;28;20790;-73
2023/07/23 00:51:46;;;;;;;9.07;8.17;;;14.10;1.00;;;;;;5031602;28;20418;-72
2023/07/23 00:54:13;;;;;;;9.00;8.17;;;14.10;1.00;;;;;;5033190;28;20402;-69
2023/07/23 00:56:40;;;;;;;11.43;9.07;;;14.10;1.00;;;;;;5034541;28;20433;-73
2023/07/23 00:59:07;;;;;;;11.83;9.07;;;14.10;1.00;;;;;;5036735;28;20541;-71
2023/07/23 01:01:33;;;;;;;12.00;8.40;;;14.00;1.00;;;;;;5036294;28;20487;-72
2023/07/23 01:03:59;;;;;;;9.53;8.60;;;13.90;1.00;;;;;;5036984;28;20931;-73
2023/07/23 01:06:27;;;;;;;14.67;9.77;;;13.90;1.00;;;;;;5034913;28;20201;-66
2023/07/23 01:08:56;;;;;;;15.43;9.00;;;13.90;1.00;;;;;;5036768;28;20186;-72
2023/07/23 01:11:26;;;;;;;12.10;10.63;;;14.00;1.00;;;;;;5036712;28;20412;-69
2023/07/23 01:13:52;;;;;;;9.53;8.30;;;13.90;1.00;;;;;;5036894;28;20540;-66
2023/07/23 01:16:18;;;;;;;10.73;8.20;;;14.00;1.00;;;;;;5036079;28;20485;-66
2023/07/23 01:18:45;;;;;;;8.40;7.60;;;13.90;1.00;;;;;;5036115;28;20199;-72
2023/07/23 01:21:11;;;;;;;9.70;8.60;;;13.90;1.00;;;;;;5036753;28;20421;-72
2023/07/23 01:23:37;;;;;;;11.60;8.50;;;13.90;1.00;;;;;;5020377;28;20418;-71
2023/07/23 01:26:03;;;;;;;9.87;8.53;;;13.90;1.00;;;;;;5015456;28;20399;-72
2023/07/23 01:28:29;;;;;;;10.80;8.33;;;14.00;1.00;;;;;;5015428;28;20948;-66
2023/07/23 01:30:56;;;;;;;10.10;9.10;;;13.90;1.00;;;;;;5016113;28;20415;-66
2023/07/23 01:33:22;;;;;;;19.40;8.50;;;13.90;1.00;;;;;;5016846;28;20502;-69
2023/07/23 01:35:55;;;;;;;9.67;8.43;;;13.90;1.00;;;;;;5017968;28;20434;-72
2023/07/23 01:38:22;;;;;;;9.40;8.27;;;13.90;1.00;;;;;;5036049;28;20483;-73
2023/07/23 01:40:48;;;;;;;10.20;8.00;;;13.90;4.20;;;;;;5036378;28;20424;-69
2023/07/23 01:43:15;;;;;;;14.33;9.20;;;13.90;13.60;;;;;;5035084;28;20985;-67
2023/07/23 01:45:44;;;;;;;10.83;8.63;;;13.90;21.80;;;;;;5035019;28;20398;-72
2023/07/23 01:48:11;;;;;;;13.73;9.27;;;13.90;26.90;;;;;;5034817;28;20469;-68
2023/07/23 01:50:37;;;;;;;11.07;9.20;;;13.90;33.60;;;;;;5034815;28;20844;-66
2023/07/23 01:53:03;;;;;;;21.07;9.93;;;14.00;36.20;;;;;;5035048;28;20458;-66
2023/07/23 01:55:28;;;;;;;14.57;10.27;;;13.90;36.00;;;;;;5032768;28;20180;-71
2023/07/23 01:57:54;;;;;;;13.30;10.00;;;13.90;36.00;;;;;;5034950;28;20282;-66
2023/07/23 02:00:20;;;;;;;17.33;10.80;;;13.90;36.00;;;;;;5033980;28;20163;-71
2023/07/23 02:02:45;;;;;;;13.50;11.10;;;13.90;36.00;;;;;;5033612;28;20604;-72
2023/07/23 02:05:12;;;;;;;16.53;11.03;;;14.00;39.10;;;;;;5033520;28;20176;-72
2023/07/23 02:07:37;;;;;;;15.37;10.93;;;14.00;44.40;;;;;;5034132;28;20240;-66
2023/07/23 02:10:03;;;;;;;14.30;10.03;;;14.00;45.10;;;;;;5034712;28;20794;-72
2023/07/23 02:12:29;;;;;;;15.83;10.00;;;14.00;47.90;;;;;;5033811;28;20172;-71
2023/07/23 02:14:55;;;;;;;12.13;9.67;;;14.00;46.30;;;;;;5034381;28;20400;-72
2023/07/23 02:17:20;;;;;;;13.87;10.30;;;14.00;53.20;;;;;;5032456;28;20199;-69
2023/07/23 02:19:46;;;;;;;12.53;10.77;;;14.10;62.90;;;;;;5032895;28;20473;-71
2023/07/23 02:22:12;;;;;;;17.07;10.20;;;14.10;65.20;;;;;;5034738;28;20174;-69
2023/07/23 02:24:38;;;;;;;12.97;10.80;;;14.00;63.80;;;;;;5034289;28;20263;-73
2023/07/23 02:27:04;;;;;;;11.87;10.07;;;14.00;64.50;;;;;;5033148;28;20184;-71
2023/07/23 02:29:29;;;;;;;11.10;9.90;;;14.00;63.70;;;;;;5033380;28;20624;-72
2023/07/23 02:31:55;;;;;;;15.20;10.27;;;14.00;69.60;;;;;;5024619;28;20497;-72
2023/07/23 02:34:21;;;;;;;11.90;10.30;;;14.10;73.70;;;;;;5014558;28;20259;-72
2023/07/23 02:36:47;;;;;;;11.70;10.47;;;14.10;76.10;;;;;;5013341;28;20660;-69
2023/07/23 02:39:13;;;;;;;13.50;10.60;;;14.10;73.60;;;;;;5013948;28;20203;-67
2023/07/23 02:41:39;;;;;;;16.67;10.77;;;14.10;75.60;;;;;;5013301;28;20780;-72
2023/07/23 02:44:05;;;;;;;15.40;10.37;;;14.00;72.00;;;;;;5013654;28;20421;-66
2023/07/23 02:46:31;;;;;;;13.93;11.10;;;14.00;74.60;;;;;;5033393;28;20821;-67
2023/07/23 02:48:56;;;;;;;15.20;12.00;;;14.00;83.20;;;;;;4977432;28;1624839;-66
2023/07/23 02:51:22;;;;;;;15.53;10.60;;;14.00;85.10;;;;;;5033898;28;20202;-72
2023/07/23 02:53:49;;;;;;;15.60;13.43;;;14.10;83.70;;;;;;5035000;28;20214;-66
2023/07/23 02:56:15;;;;;;;12.83;10.60;;;14.10;83.60;;;;;;5032787;28;20211;-67
2023/07/23 02:58:41;;;;;;;14.23;10.97;;;14.10;84.00;;;;;;5034482;28;20454;-71
2023/07/23 03:01:09;;;;;;;15.17;11.87;;;14.10;91.10;;;;;;5033829;28;20430;-73
2023/07/23 03:03:35;;;;;;;12.90;10.77;;;14.20;93.30;;;;;;5034453;28;20179;-67
2023/07/23 03:06:01;;;;;;;17.60;11.97;;;14.10;90.20;;;;;;5034009;28;20485;-66
2023/07/23 03:08:27;;;;;;;16.87;12.33;;;14.10;90.90;;;;;;5034820;28;20427;-72
2023/07/23 03:10:53;;;;;;;14.00;11.77;;;14.10;91.50;;;;;;5034698;28;20410;-72
2023/07/23 03:13:19;;;;;;;14.23;12.20;;;14.10;91.30;;;;;;5034899;28;20406;-72
2023/07/23 03:15:45;;;;;;;14.03;11.80;;;14.10;92.90;;;;;;5031676;28;20194;-68
2023/07/23 03:18:11;;;;;;;15.27;12.03;;;14.10;93.60;;;;;;5033265;28;20717;-67
2023/07/23 03:20:36;;;;;;;17.13;12.57;;;14.10;94.70;;;;;;5033263;28;20434;-71
2023/07/23 03:23:02;;;;;;;17.47;12.53;;;14.10;95.40;;;;;;5017023;28;20215;-69
2023/07/23 03:25:28;;;;;;;15.10;11.90;;;14.10;98.00;;;;;;5013866;28;20184;-69
2023/07/23 03:27:56;;;;;;;15.50;13.00;;;14.10;98.80;;;;;;5014530;28;20231;-72
2023/07/23 03:30:22;;;;;;;19.90;14.17;;;14.10;99.50;;;;;;5014305;28;20203;-69
2023/07/23 03:32:48;;;;;;;13.60;12.20;;;14.20;99.90;;;;;;5014691;28;20450;-71
2023/07/23 03:35:14;;;;;;;20.50;11.73;;;14.20;99.90;;;;;;5012260;28;20172;-67
2023/07/23 03:37:40;;;;;;;14.40;11.87;;;14.20;99.90;;;;;;5014256;28;20435;-71
2023/07/23 03:40:06;;;;;;;21.67;13.37;;;14.20;99.90;;;;;;5013386;28;20179;-69
2023/07/23 03:42:32;;;;;;;21.80;12.97;;;14.30;99.90;;;;;;5022509;28;20168;-70
2023/07/23 03:44:57;;;;;;;15.80;13.80;;;14.30;99.90;;;;;;5034028;28;20766;-70
2023/07/23 03:47:23;;;;;;;17.13;13.53;;;14.30;99.90;;;;;;5033204;28;20275;-67
2023/07/23 03:49:49;;;;;;;13.50;12.07;;;14.30;99.90;;;;;;5033954;28;20286;-71
2023/07/23 03:52:15;;;;;;;17.37;13.20;;;14.30;99.90;;;;;;5033273;28;20174;-67
2023/07/23 03:54:41;;;;;;;15.47;13.03;;;14.40;99.90;;;;;;5033279;28;20421;-68
2023/07/23 03:57:07;;;;;;;17.20;14.07;;;14.40;99.90;;;;;;5032583;28;20226;-67
2023/07/23 03:59:40;;;;;;;20.60;14.53;;;14.30;99.90;;;;;;5033814;28;20639;-67
2023/07/23 04:02:06;;;;;;;14.17;12.50;;;14.40;99.90;;;;;;5033700;28;20377;-66
2023/07/23 04:04:34;;;;;;;15.80;11.93;;;14.40;99.90;;;;;;5033969;28;20473;-70
2023/07/23 04:06:59;;;;;;;21.27;14.30;;;14.40;99.90;;;;;;5032990;28;20917;-66
2023/07/23 04:09:25;;;;;;;14.47;13.03;;;14.40;99.90;;;;;;5032972;28;20407;-66
2023/07/23 04:11:51;;;;;;;19.07;15.03;;;14.40;99.90;;;;;;5032539;28;20198;-72
2023/07/23 04:14:17;;;;;;;14.43;12.67;;;14.30;99.90;;;;;;5031496;28;20187;-71
2023/07/23 04:16:42;;;;;;;14.57;12.83;;;14.40;99.90;;;;;;5032851;28;20242;-70
2023/07/23 04:19:08;;;;;;;18.90;12.23;;;14.40;99.90;;;;;;5033394;28;20195;-66
2023/07/23 04:21:34;;;;;;;15.53;13.60;;;14.40;99.90;;;;;;5033504;28;20152;-72
2023/07/23 04:24:02;;;;;;;15.27;13.17;;;14.40;99.90;;;;;;5033572;28;20213;-67
2023/07/23 04:26:30;;;;;;;16.20;14.30;;;14.40;99.90;;;;;;5031240;28;20226;-73
2023/07/23 04:28:56;;;;;;;16.80;13.80;;;14.40;99.90;;;;;;5033259;28;20402;-66
2023/07/23 04:31:22;;;;;;;16.40;13.73;;;14.40;99.90;;;;;;5032612;28;20402;-68
2023/07/23 04:33:47;;;;;;;19.17;14.40;;;14.40;99.90;;;;;;5033474;28;20498;-70
2023/07/23 04:36:14;;;;;;;14.60;13.10;;;14.50;99.90;;;;;;5032352;28;20221;-66
2023/07/23 04:38:42;;;;;;;14.73;13.23;;;14.50;99.90;;;;;;5033274;28;20290;-66
2023/07/23 04:41:08;;;;;;;15.40;12.47;;;14.50;99.90;;;;;;5017028;28;20439;-66
2023/07/23 04:43:35;;;;;;;19.90;12.77;;;14.50;99.90;;;;;;5014502;28;20400;-72
2023/07/23 04:46:01;;;;;;;22.70;13.50;;;14.60;99.90;;;;;;5031980;28;21073;-66
2023/07/23 04:48:27;;;;;;;14.20;11.30;;;14.60;99.90;;;;;;5032638;28;20453;-72
2023/07/23 04:50:56;;;;;;;14.03;12.53;;;14.60;99.90;;;;;;5032188;28;20648;-66
2023/07/23 04:53:23;;;;;;;16.50;13.00;;;14.60;99.90;;;;;;5033451;28;20249;-70
2023/07/23 04:55:58;;;;;;;16.67;12.47;;;14.60;99.90;;;;;;5032440;28;20414;-66
2023/07/23 04:58:24;;;;;;;19.33;14.17;;;14.50;99.90;;;;;;5031533;28;20478;-72
2023/07/23 05:00:50;;;;;;;15.80;12.63;;;14.60;99.90;;;;;;5032647;28;20418;-70
2023/07/23 05:03:16;;;;;;;13.13;11.70;;;14.60;99.90;;;;;;5032203;28;20445;-67
2023/07/23 05:05:44;;;;;;;18.60;11.97;;;14.60;99.90;;;;;;5030584;28;20606;-68
2023/07/23 05:08:10;;;;;;;14.60;12.83;;;14.60;99.90;;;;;;5031435;28;20481;-70
2023/07/23 05:10:36;;;;;;;17.73;12.43;;;14.60;99.90;;;;;;5032897;28;20831;-68
2023/07/23 05:13:02;;;;;;;14.83;12.03;;;14.70;99.90;;;;;;5028578;28;20633;-69
2023/07/23 05:15:28;;;;;;;16.27;11.63;;;14.70;99.90;;;;;;5012315;28;20399;-70
2023/07/23 05:17:53;;;;;;;13.77;11.77;;;14.70;99.90;;;;;;5011803;28;20466;-73
2023/07/23 05:20:19;;;;;;;15.60;12.90;;;14.70;99.90;;;;;;5013300;28;20223;-72
2023/07/23 05:22:45;;;;;;;13.63;11.00;;;14.70;99.90;;;;;;5017510;28;20210;-69
2023/07/23 05:25:10;;;;;;;17.03;12.70;;;14.70;99.90;;;;;;5031370;28;20168;-73
2023/07/23 05:27:37;;;;;;;14.23;11.70;;;14.70;99.90;;;;;;5032652;28;20190;-69
2023/07/23 05:30:03;;;;;;;20.07;11.10;;;14.80;99.90;;;;;;5032365;28;20638;-71
2023/07/23 05:32:30;;;;;;;16.30;11.90;;;14.80;99.90;;;;;;5032819;28;20399;-71
2023/07/23 05:34:56;;;;;;;13.47;10.70;;;14.80;99.90;;;;;;5032487;28;20485;-67
2023/07/23 05:37:22;;;;;;;13.73;12.20;;;14.80;99.90;;;;;;5030942;28;21001;-69
2023/07/23 05:39:48;;;;;;;10.77;9.67;;;14.90;99.90;;;;;;5031564;28;20203;-65
2023/07/23 05:42:14;;;;;;;11.40;9.50;;;14.90;99.90;;;;;;5033491;28;20544;-66
2023/07/23 05:44:40;;;;;;;11.40;9.03;;;15.00;99.90;;;;;;5034965;28;20230;-72
2023/07/23 05:47:05;;;;;;;9.80;8.80;;;15.00;99.90;;;;;;5034581;28;20195;-66
2023/07/23 05:49:31;;;;;;;10.03;9.00;;;15.00;99.90;;;;;;5022547;28;20552;-67
2023/07/23 05:52:00;;;;;;;9.40;8.47;;;15.00;99.90;;;;;;5035917;28;20184;-73
2023/07/23 05:54:26;;;;;;;8.97;7.73;;;15.00;99.90;;;;;;5035831;28;20254;-72
2023/07/23 05:56:52;;;;;;;9.37;8.13;;;15.00;99.90;;;;;;5035116;28;20556;-67
2023/07/23 05:59:18;;;;;;;9.00;7.43;;;15.00;99.90;;;;;;5036282;28;20191;-71
2023/07/23 06:01:43;;;;;;;8.53;7.20;;;15.00;99.90;;;;;;5035945;28;20167;-69
2023/07/23 06:04:09;;;;;;;8.90;7.73;;;14.90;99.90;;;;;;5017740;28;20207;-68
2023/07/23 06:06:35;;;;;;;7.93;7.07;;;14.90;99.90;;;;;;5014559;28;20519;-72
2023/07/23 06:09:00;;;;;;;8.63;7.83;;;14.90;99.90;;;;;;5016157;28;20175;-67
2023/07/23 06:11:26;;;;;;;7.37;6.67;;;14.90;99.90;;;;;;5016486;28;20621;-72
2023/07/23 06:13:52;;;;;;;7.60;6.87;;;14.90;99.90;;;;;;5016017;28;20180;-72
2023/07/23 06:16:17;;;;;;;6.77;6.07;;;14.90;99.90;;;;;;5015282;28;20183;-67
2023/07/23 06:18:43;;;;;;;7.30;6.43;;;15.00;99.90;;;;;;5031238;28;20207;-68
2023/07/23 06:21:09;;;;;;;6.37;5.77;;;15.00;99.90;;;;;;5034512;28;20636;-73
2023/07/23 06:23:35;;;;;;;7.27;6.57;;;14.90;99.90;;;;;;5035279;28;20167;-72
2023/07/23 06:26:01;;;;;;;8.63;6.80;;;14.90;99.90;;;;;;5034170;28;20250;-72
2023/07/23 06:28:27;;;;;;;6.03;5.53;;;14.90;99.90;;;;;;5033812;28;20199;-66
2023/07/23 06:30:53;;;;;;;6.50;6.00;;;14.90;99.90;;;;;;5035560;28;20824;-67
2023/07/23 06:33:20;;;;;;;7.80;7.07;;;15.00;99.90;;;;;;5035471;28;20509;-72
2023/07/23 06:35:47;;;;;;;7.67;7.00;;;15.00;99.90;;;;;;5034482;28;20414;-70
2023/07/23 06:38:13;;;;;;;9.17;6.33;;;15.00;99.90;;;;;;5035407;28;20795;-71
2023/07/23 06:40:53;;;;;;;6.53;5.73;;;15.00;99.90;;;;;;5035150;28;20398;-67
2023/07/23 06:43:19;;;;;;;6.43;5.93;;;15.00;99.90;;;;;;5026248;28;20978;-67
2023/07/23 06:45:46;;;;;;;6.30;5.70;;;15.00;99.90;;;;;;5027546;28;20430;-67
2023/07/23 06:48:13;;;;;;;6.03;5.43;;;15.00;99.90;;;;;;5026533;28;20212;-71
2023/07/23 06:50:38;;;;;;;5.33;4.93;;;15.00;99.90;;;;;;5035500;28;20402;-67
2023/07/23 06:53:05;;;;;;;5.53;5.03;;;15.00;99.90;;;;;;5019905;28;20442;-67
2023/07/23 06:55:31;;;;;;;4.83;4.43;;;15.00;99.90;;;;;;5014190;28;20172;-71
2023/07/23 06:57:57;;;;;;;5.13;4.63;;;15.10;99.90;;;;;;5032092;28;20462;-67
2023/07/23 07:00:23;;;;;;;5.27;4.77;;;15.10;99.90;;;;;;5033678;28;20814;-70
2023/07/23 07:02:48;;;;;;;5.00;4.57;;;15.10;99.90;;;;;;5034160;28;20174;-70
2023/07/23 07:05:14;;;;;;;4.50;4.20;;;15.10;99.90;;;;;;5028894;28;20507;-70
2023/07/23 07:07:40;;;;;;;4.23;3.83;;;15.10;99.90;;;;;;5027657;28;20203;-71
2023/07/23 07:10:06;;;;;;;8.63;4.37;;;15.10;99.90;;;;;;5034999;28;20171;-68
2023/07/23 07:12:32;;;;;;;4.40;4.10;;;15.10;99.90;;;;;;5034635;28;20632;-71
2023/07/23 07:14:58;;;;;;;3.90;3.60;;;15.10;99.90;;;;;;5034669;28;20409;-68
2023/07/23 07:17:23;;;;;;;3.90;3.20;;;15.20;99.90;;;;;;5033738;28;20279;-73
2023/07/23 07:19:49;;;;;;;3.77;3.47;;;15.20;99.90;;;;;;5014543;28;20219;-69
2023/07/23 07:22:16;;;;;;;4.30;3.90;;;15.20;99.90;;;;;;5050047;28;20182;-69
2023/07/23 07:24:41;;;;;;;4.27;3.87;;;15.20;99.90;;;;;;5034552;28;20528;-70
2023/07/23 07:27:10;;;;;;;3.93;3.63;;;15.20;99.90;;;;;;5033655;28;20422;-72
2023/07/23 07:29:43;;;;;;;4.07;3.67;;;15.20;99.90;;;;;;5030249;28;20180;-77
2023/07/23 07:32:09;;;;;;;4.20;3.90;;;15.20;99.90;;;;;;5027330;28;20938;-69
2023/07/23 07:34:35;;;;;;;5.03;4.57;;;15.20;99.90;;;;;;5034474;28;20402;-69
2023/07/23 07:37:01;;;;;;;4.37;3.97;;;15.20;99.90;;;;;;5032872;28;20195;-73
2023/07/23 07:39:26;;;;;;;5.00;4.30;;;15.20;99.90;;;;;;5031998;28;20210;-72
2023/07/23 07:41:53;;;;;;;5.27;4.80;;;15.10;99.90;;;;;;5034078;28;20183;-72
2023/07/23 07:44:20;;;;;;;4.80;4.33;;;15.10;99.90;;;;;;5033748;28;20179;-69
2023/07/23 07:46:46;;;;;;;4.43;4.10;;;15.20;99.90;;;;;;5033429;28;20441;-71
2023/07/23 07:49:11;;;;;;;6.00;5.40;;;15.20;99.90;;;;;;5024555;28;21042;-70
2023/07/23 07:51:38;;;;;;;4.83;4.43;;;15.20;99.90;;;;;;5012803;28;20554;-70
2023/07/23 07:54:04;;;;;;;6.63;4.87;;;15.20;99.90;;;;;;5013688;28;20179;-70
2023/07/23 07:56:30;;;;;;;9.00;5.80;;;15.20;99.90;;;;;;5027776;28;20446;-69
2023/07/23 07:58:56;;;;;;;8.13;5.43;;;15.20;99.90;;;;;;5024434;28;20208;-68
2023/07/23 08:01:22;;;;;;;6.00;5.50;;;15.20;99.90;;;;;;5012299;28;20443;-70
2023/07/23 08:03:48;;;;;;;5.60;5.20;;;15.20;99.90;;;;;;5014145;28;20414;-70
2023/07/23 08:06:15;;;;;;;7.50;6.17;;;15.30;99.90;;;;;;5012546;28;20404;-70
2023/07/23 08:08:42;;;;;;;6.93;5.67;;;15.20;99.90;;;;;;5014233;28;20645;-70
2023/07/23 08:11:09;;;;;;;5.80;5.30;;;15.30;99.90;;;;;;5017672;28;20434;-72
2023/07/23 08:13:38;;;;;;;5.77;5.37;;;15.30;99.90;;;;;;5032399;28;20422;-69
2023/07/23 08:16:05;;;;;;;7.70;5.93;;;15.30;99.90;;;;;;5032405;28;20406;-72
2023/07/23 08:18:31;;;;;;;7.50;5.30;;;15.30;99.90;;;;;;5022771;28;20473;-69
2023/07/23 08:20:58;;;;;;;6.10;5.50;;;15.40;99.90;;;;;;5013766;28;20411;-70
2023/07/23 08:23:25;;;;;;;8.27;6.97;;;15.30;99.90;;;;;;5013813;28;20415;-68
2023/07/23 08:25:55;;;;;;;6.70;5.83;;;15.30;99.90;;;;;;5012797;28;20445;-71
2023/07/23 08:28:33;;;;;;;7.70;6.10;;;15.30;99.90;;;;;;5013815;28;20438;-71
2023/07/23 08:31:00;;;;;;;9.60;6.00;;;15.30;99.90;;;;;;5011926;28;20469;-69
2023/07/23 08:33:28;;;;;;;6.13;5.43;;;15.30;99.90;;;;;;5012182;28;20506;-81
2023/07/23 08:35:55;;;;;;;8.17;5.67;;;15.30;99.90;;;;;;5013313;28;20888;-72
2023/07/23 08:38:24;;;;;;;7.83;5.37;;;15.30;99.90;;;;;;5013467;28;20457;-69
2023/07/23 08:41:01;;;;;;;6.97;6.30;;;15.30;99.90;;;;;;5020276;28;20902;-69
2023/07/23 08:43:44;;;;;;;7.53;5.90;;;15.40;99.90;;;;;;5033386;28;20402;-69
2023/07/23 08:46:21;;;;;;;8.67;6.57;;;15.40;99.90;;;;;;5032239;28;20397;-69
2023/07/23 08:48:58;;;;;;;10.80;5.80;;;15.50;99.90;;;;;;5033087;28;20437;-69
2023/07/23 08:51:32;;;;;;;5.93;5.33;;;15.60;99.90;;;;;;5025952;28;20453;-74
2023/07/23 08:53:59;;;;;;;9.03;6.70;;;15.60;99.90;;;;;;5019783;28;20833;-69
2023/07/23 08:56:25;;;;;;;10.40;5.83;;;15.60;99.90;;;;;;5031980;28;20456;-69
2023/07/23 08:58:52;;;;;;;7.73;6.00;;;15.60;99.90;;;;;;5032021;28;20462;-68
2023/07/23 09:01:17;;;;;;;8.50;5.73;;;15.60;99.90;;;;;;5033118;28;20440;-69
2023/07/23 09:03:43;;;;;;;8.50;6.83;;;15.60;99.90;;;;;;5033165;28;20414;-71
2023/07/23 09:06:12;;;;;;;7.67;6.87;;;15.60;99.90;;;;;;5032071;28;20680;-71
2023/07/23 09:08:38;;;;;;;7.00;5.90;;;15.70;99.90;;;;;;5019991;28;20446;-71
2023/07/23 09:11:05;;;;;;;6.90;6.07;;;15.60;99.90;;;;;;5018088;28;20758;-69
2023/07/23 09:13:37;;;;;;;8.70;6.77;;;15.70;99.90;;;;;;5012020;28;20172;-69
2023/07/23 09:16:06;;;;;;;8.20;6.50;;;15.70;99.90;;;;;;5012304;28;20439;-71
2023/07/23 09:18:39;;;;;;;7.90;6.83;;;15.70;99.90;;;;;;5016837;28;20478;-68
2023/07/23 09:21:06;;;;;;;7.83;6.70;;;15.70;99.90;;;;;;5016991;28;20469;-78
2023/07/23 09:23:33;;;;;;;7.67;6.87;;;15.80;99.90;;;;;;5018728;28;20506;-69
2023/07/23 09:25:59;;;;;;;10.37;7.13;;;15.80;99.90;;;;;;5029897;28;20433;-69
2023/07/23 09:28:26;;;;;;;8.30;6.27;;;15.80;99.90;;;;;;5036285;28;20483;-70
2023/07/23 09:30:56;;;;;;;7.87;7.00;;;15.80;99.90;;;;;;5034759;28;20418;-68
2023/07/23 09:33:27;;;;;;;7.13;6.27;;;15.90;99.90;;;;;;5036541;28;20406;-69
2023/07/23 09:36:02;;;;;;;8.47;6.70;;;15.90;99.90;;;;;;5034750;28;20911;-81
2023/07/23 09:38:29;;;;;;;6.83;6.13;;;15.90;99.90;;;;;;5016659;28;20462;-70
2023/07/23 09:40:55;;;;;;;6.40;5.90;;;15.90;99.90;;;;;;5015574;28;20439;-69
2023/07/23 09:43:22;;;;;;;6.33;5.60;;;15.90;99.90;;;;;;5015566;28;20422;-70
2023/07/23 09:45:47;;;;;;;9.13;6.97;;;15.90;99.90;;;;;;5032347;28;20430;-68
2023/07/23 09:48:17;;;;;;;8.70;6.47;;;15.80;99.90;;;;;;5036041;28;20473;-73
2023/07/23 09:50:50;;;;;;;7.67;6.67;;;15.90;99.90;;;;;;5035903;28;20168;-70
2023/07/23 09:53:16;;;;;;;7.40;6.70;;;15.80;99.90;;;;;;5032526;28;20410;-69
2023/07/23 09:55:44;;;;;;;9.33;6.33;;;15.80;99.90;;;;;;5027433;28;20584;-69
2023/07/23 09:58:11;;;;;;;9.27;6.80;;;15.90;99.90;;;;;;5027849;28;20497;-69
2023/07/23 10:00:37;;;;;;;7.40;6.67;;;15.90;99.90;;;;;;4999234;28;20453;-69
2023/07/23 10:03:04;;;;;;;11.57;6.10;;;16.00;99.90;;;;;;5014342;28;20757;-68
2023/07/23 10:05:29;;;;;;;7.37;5.93;;;16.00;99.90;;;;;;5024935;28;20763;-69
2023/07/23 10:07:57;;;;;;;9.13;7.20;;;16.10;99.90;;;;;;5034590;28;20426;-73
2023/07/23 10:10:23;;;;;;;12.87;7.20;;;16.10;99.90;;;;;;5034653;28;20186;-70
2023/07/23 10:12:49;;;;;;;8.27;6.93;;;16.20;99.90;;;;;;5035722;28;20416;-69
2023/07/23 10:15:15;;;;;;;7.63;6.43;;;16.30;99.90;;;;;;5030365;28;20553;-69
2023/07/23 10:17:47;;;;;;;8.50;6.30;;;16.30;99.90;;;;;;5020606;28;20192;-69
2023/07/23 10:20:15;;;;;;;6.90;5.90;;;16.30;99.90;;;;;;5015209;28;20267;-70
2023/07/23 10:22:44;;;;;;;7.03;6.33;;;16.20;99.90;;;;;;5028365;28;20423;-69
2023/07/23 10:25:30;;;;;;;6.97;6.27;;;16.10;99.90;;;;;;5035024;28;20387;-69
2023/07/23 10:28:04;;;;;;;8.67;6.67;;;16.20;99.90;;;;;;5034661;28;20429;-68
2023/07/23 10:30:32;;;;;;;7.13;6.43;;;16.20;99.90;;;;;;5035602;28;20391;-70
2023/07/23 10:33:10;;;;;;;12.10;7.53;;;16.20;99.90;;;;;;5022099;28;20442;-69
2023/07/23 10:36:00;;;;;;;7.10;6.23;;;16.10;99.90;;;;;;5015196;28;20438;-68
2023/07/23 10:38:30;;;;;;;7.07;6.37;;;16.10;99.90;;;;;;5014793;28;20457;-69
2023/07/23 10:40:57;;;;;;;7.17;6.27;;;16.10;99.90;;;;;;5014322;28;20932;-68
2023/07/23 10:43:23;;;;;;;7.27;6.13;;;16.10;99.90;;;;;;5015153;28;20737;-76
2023/07/23 10:46:04;;;;;;;9.13;6.57;;;16.10;99.90;;;;;;4997216;28;20478;-68
2023/07/23 10:48:42;;;;;;;10.70;6.73;;;16.20;99.90;;;;;;5014849;28;20504;-74
2023/07/23 10:51:17;;;;;;;8.03;6.50;;;16.20;99.90;;;;;;5034197;28;20799;-68
2023/07/23 10:53:55;;;;;;;6.37;5.80;;;16.20;99.90;;;;;;5035255;28;20405;-69
2023/07/23 10:56:33;;;;;;;8.07;6.50;;;16.20;99.90;;;;;;5033538;28;20808;-69
2023/07/23 10:59:04;;;;;;;8.77;7.03;;;16.20;99.90;;;;;;5034855;28;20465;-68
2023/07/23 11:01:35;;;;;;;8.17;6.80;;;16.30;99.90;;;;;;5033597;28;20745;-68
2023/07/23 11:04:10;;;;;;;6.90;6.20;;;16.30;99.90;;;;;;5033948;28;20942;-69
2023/07/23 11:06:36;;;;;;;7.40;6.47;;;16.20;99.90;;;;;;5018294;28;20454;-69
2023/07/23 11:09:10;;;;;;;8.90;7.23;;;16.20;99.90;;;;;;5034838;28;20441;-68
2023/07/23 11:11:41;;;;;;;8.57;6.50;;;16.20;99.90;;;;;;5033774;28;20767;-67
2023/07/23 11:14:36;;;;;;;8.00;7.23;;;16.20;99.90;;;;;;5034218;28;20403;-69
2023/07/23 11:17:03;;;;;;;8.93;7.57;;;16.20;99.90;;;;;;5012826;28;20466;-68
2023/07/23 11:19:31;;;;;;;8.23;7.07;;;16.20;99.90;;;;;;5014706;28;20466;-68
2023/07/23 11:21:59;;;;;;;11.53;7.80;;;16.20;99.90;;;;;;5015693;28;20457;-69
2023/07/23 11:24:28;;;;;;;8.30;7.50;;;16.30;99.90;;;;;;5014302;28;20399;-69
2023/07/23 11:27:12;;;;;;;11.40;7.93;;;16.40;99.90;;;;;;5013898;28;20426;-70
2023/07/23 11:29:38;;;;;;;12.00;9.33;;;16.50;99.90;;;;;;5014106;28;20450;-67
2023/07/23 11:32:05;;;;;;;9.33;8.40;;;16.50;99.90;;;;;;5032181;28;20476;-68
2023/07/23 11:34:31;;;;;;;9.97;8.87;;;16.60;99.90;;;;;;5034590;28;20187;-69
2023/07/23 11:36:57;;;;;;;8.97;8.07;;;16.70;99.90;;;;;;5033330;28;20433;-69
2023/07/23 11:39:24;;;;;;;9.23;7.47;;;16.70;99.90;;;;;;5014086;28;20462;-69
2023/07/23 11:41:50;;;;;;;10.70;7.93;;;16.70;99.90;;;;;;5013832;28;20172;-69
2023/07/23 11:44:16;;;;;;;10.53;9.40;;;16.70;99.90;;;;;;5022202;28;20430;-68
2023/07/23 11:46:42;;;;;;;10.23;8.40;;;16.70;99.90;;;;;;5032475;28;20434;-68
2023/07/23 11:49:09;;;;;;;9.73;8.73;;;16.60;99.90;;;;;;5033941;28;20191;-72
2023/07/23 11:51:37;;;;;;;16.27;10.30;;;16.70;99.90;;;;;;5032778;28;20957;-69
2023/07/23 11:54:13;;;;;;;11.20;8.87;;;16.70;99.90;;;;;;5032918;28;20497;-68
2023/07/23 11:56:46;;;;;;;11.80;8.63;;;16.80;99.90;;;;;;5013947;28;20465;-68
2023/07/23 11:59:14;;;;;;;15.90;10.90;;;16.80;99.90;;;;;;5013504;28;20843;-70
2023/07/23 12:01:41;;;;;;;12.80;9.70;;;16.80;99.90;;;;;;5014088;28;20407;-70
2023/07/23 12:04:08;;;;;;;11.10;9.93;;;16.70;99.90;;;;;;5014041;28;20494;-69
2023/07/23 12:06:37;;;;;;;10.50;9.40;;;16.70;99.90;;;;;;5012730;28;20784;-69
2023/07/23 12:09:11;;;;;;;11.40;9.67;;;16.70;99.90;;;;;;5014150;28;20403;-69
2023/07/23 12:11:38;;;;;;;13.33;9.00;;;16.70;99.90;;;;;;5015777;28;20453;-70
2023/07/23 12:14:06;;;;;;;13.33;10.37;;;16.70;99.90;;;;;;5033457;28;20418;-71
2023/07/23 12:16:35;;;;;;;11.27;10.03;;;16.70;99.90;;;;;;5032035;28;20866;-69
2023/07/23 12:19:06;;;;;;;11.60;10.40;;;16.80;99.90;;;;;;5032272;28;20449;-69
2023/07/23 12:21:39;;;;;;;12.20;9.87;;;16.80;99.90;;;;;;5027595;28;20525;-69
2023/07/23 12:24:14;;;;;;;12.57;9.67;;;16.80;99.90;;;;;;5012157;28;20764;-69
2023/07/23 12:26:41;;;;;;;13.27;10.20;;;16.80;99.90;;;;;;5029338;28;20476;-68
2023/07/23 12:29:06;;;;;;;14.10;9.50;;;16.80;99.90;;;;;;5014605;28;20450;-69
2023/07/23 12:31:40;;;;;;;12.57;8.70;;;16.80;99.90;;;;;;5014173;28;20423;-70
2023/07/23 12:34:05;;;;;;;9.57;8.57;;;16.80;99.90;;;;;;5012843;28;20164;-69
2023/07/23 12:36:31;;;;;;;11.07;9.87;;;16.80;99.90;;;;;;5012816;28;20951;-68
2023/07/23 12:38:57;;;;;;;13.40;9.20;;;16.80;99.90;;;;;;5013539;28;20196;-68
2023/07/23 12:41:22;;;;;;;11.53;8.70;;;16.80;99.90;;;;;;5029719;28;20183;-69